sensor_id;sensor_type;location;lat;lon;timestamp;pressure;altitude;pressure_sealevel;temperature;humidity
71057;BME280;58380;48.312;9.246;2023-08-31T07:59:27;93427.00;;;11.51;95.82
71057;BME280;58380;48.312;9.246;2023-08-31T08:01:53;93437.28;;;11.53;95.13
71057;BME280;58380;48.312;9.246;2023-08-31T08:04:18;93386.06;;;11.28;94.80
71057;BME280;58380;48.312;9.246;2023-08-31T08:06:44;93437.25;;;11.68;90.06
71057;BME280;58380;48.312;9.246;2023-08-31T08:09:10;93429.84;;;11.70;90.69
71057;BME280;58380;48.312;9.246;2023-08-31T08:11:37;93392.59;;;11.61;90.92
71057;BME280;58380;48.312;9.246;2023-08-31T08:14:03;93349.34;;;11.32;85.43
71057;BME280;58380;48.312;9.246;2023-08-31T08:16:28;93392.59;;;11.66;87.80
71057;BME280;58380;48.312;9.246;2023-08-31T08:18:54;93441.13;;;12.06;85.57
71057;BME280;58380;48.312;9.246;2023-08-31T08:21:19;93389.63;;;11.78;87.95
71057;BME280;58380;48.312;9.246;2023-08-31T08:23:45;93382.53;;;11.69;83.04
71057;BME280;58380;48.312;9.246;2023-08-31T08:26:10;93434.22;;;12.05;85.77
71057;BME280;58380;48.312;9.246;2023-08-31T08:28:37;93452.00;;;11.95;78.67
71057;BME280;58380;48.312;9.246;2023-08-31T08:31:02;93459.94;;;11.95;80.31
71057;BME280;58380;48.312;9.246;2023-08-31T08:33:29;93428.53;;;11.68;81.77
71057;BME280;58380;48.312;9.246;2023-08-31T08:35:58;93445.41;;;11.92;81.71
71057;BME280;58380;48.312;9.246;2023-08-31T08:38:25;93461.00;;;11.99;83.26
71057;BME280;58380;48.312;9.246;2023-08-31T08:40:51;93464.13;;;12.11;80.44
71057;BME280;58380;48.312;9.246;2023-08-31T08:43:21;93413.13;;;11.95;78.24
71057;BME280;58380;48.312;9.246;2023-08-31T08:45:50;93469.00;;;12.48;81.09
71057;BME280;58380;48.312;9.246;2023-08-31T08:48:20;93394.00;;;12.14;70.65
71057;BME280;58380;48.312;9.246;2023-08-31T08:50:47;93474.91;;;12.74;68.12
71057;BME280;58380;48.312;9.246;2023-08-31T08:53:14;93363.34;;;12.02;68.42
71057;BME280;58380;48.312;9.246;2023-08-31T08:55:43;93365.69;;;12.14;71.08
71057;BME280;58380;48.312;9.246;2023-08-31T08:58:08;93404.66;;;12.43;64.24
71057;BME280;58380;48.312;9.246;2023-08-31T09:00:35;93469.56;;;12.85;66.14
71057;BME280;58380;48.312;9.246;2023-08-31T09:03:01;93461.63;;;12.80;67.30
71057;BME280;58380;48.312;9.246;2023-08-31T09:05:31;93416.88;;;12.39;61.78
71057;BME280;58380;48.312;9.246;2023-08-31T09:08:08;93487.84;;;12.86;65.39
71057;BME280;58380;48.312;9.246;2023-08-31T09:10:44;93417.28;;;12.61;69.46
71057;BME280;58380;48.312;9.246;2023-08-31T09:13:14;93492.97;;;13.07;65.22
71057;BME280;58380;48.312;9.246;2023-08-31T09:15:47;93473.75;;;12.91;64.49
71057;BME280;58380;48.312;9.246;2023-08-31T09:18:28;93428.44;;;12.58;66.18
71057;BME280;58380;48.312;9.246;2023-08-31T09:21:00;93431.53;;;12.65;64.88
71057;BME280;58380;48.312;9.246;2023-08-31T09:23:28;93397.00;;;12.46;64.85
71057;BME280;58380;48.312;9.246;2023-08-31T09:25:55;93488.50;;;13.02;65.69
71057;BME280;58380;48.312;9.246;2023-08-31T09:28:26;93381.22;;;12.31;64.16
71057;BME280;58380;48.312;9.246;2023-08-31T09:31:07;93471.88;;;12.97;66.27
71057;BME280;58380;48.312;9.246;2023-08-31T09:33:36;93456.75;;;12.97;66.75
71057;BME280;58380;48.312;9.246;2023-08-31T09:36:03;93446.41;;;13.01;64.44
71057;BME280;58380;48.312;9.246;2023-08-31T09:38:32;93470.44;;;13.09;61.13
71057;BME280;58380;48.312;9.246;2023-08-31T09:41:06;93501.94;;;13.16;63.14
71057;BME280;58380;48.312;9.246;2023-08-31T09:46:04;93457.88;;;12.91;62.35
71057;BME280;58380;48.312;9.246;2023-08-31T09:48:31;93394.44;;;12.70;64.82
71057;BME280;58380;48.312;9.246;2023-08-31T09:50:57;93475.47;;;13.45;65.84
71057;BME280;58380;48.312;9.246;2023-08-31T09:55:59;93412.88;;;13.15;62.84
71057;BME280;58380;48.312;9.246;2023-08-31T10:01:05;93432.88;;;13.36;59.88
71057;BME280;58380;48.312;9.246;2023-08-31T10:03:34;93464.81;;;13.55;62.33
71057;BME280;58380;48.312;9.246;2023-08-31T10:11:13;93440.53;;;13.67;57.97
71057;BME280;58380;48.312;9.246;2023-08-31T10:13:57;93485.50;;;14.31;60.97
71057;BME280;58380;48.312;9.246;2023-08-31T10:16:25;93406.44;;;13.79;58.72
71057;BME280;58380;48.312;9.246;2023-08-31T10:18:55;93458.34;;;14.34;62.18
71057;BME280;58380;48.312;9.246;2023-08-31T10:21:22;93403.00;;;14.03;62.11
71057;BME280;58380;48.312;9.246;2023-08-31T10:26:28;93450.72;;;14.27;58.14
71057;BME280;58380;48.312;9.246;2023-08-31T10:28:57;93434.16;;;14.16;57.98
71057;BME280;58380;48.312;9.246;2023-08-31T10:31:24;93431.97;;;13.99;57.62
71057;BME280;58380;48.312;9.246;2023-08-31T10:33:57;93444.31;;;14.09;56.32
71057;BME280;58380;48.312;9.246;2023-08-31T10:36:41;93431.22;;;14.18;60.48
71057;BME280;58380;48.312;9.246;2023-08-31T10:39:16;93486.91;;;14.85;59.25
71057;BME280;58380;48.312;9.246;2023-08-31T10:41:57;93484.19;;;14.90;57.09
71057;BME280;58380;48.312;9.246;2023-08-31T10:44:27;93458.41;;;14.72;55.93
71057;BME280;58380;48.312;9.246;2023-08-31T10:46:59;93486.16;;;15.03;57.28
71057;BME280;58380;48.312;9.246;2023-08-31T10:49:28;93492.81;;;15.01;55.66
71057;BME280;58380;48.312;9.246;2023-08-31T10:51:58;93486.81;;;14.95;53.35
71057;BME280;58380;48.312;9.246;2023-08-31T10:54:41;93467.03;;;15.01;55.75
71057;BME280;58380;48.312;9.246;2023-08-31T10:57:07;93465.88;;;15.07;53.33
71057;BME280;58380;48.312;9.246;2023-08-31T10:59:52;93484.91;;;15.15;51.17
71057;BME280;58380;48.312;9.246;2023-08-31T11:02:42;93489.63;;;15.37;56.97
71057;BME280;58380;48.312;9.246;2023-08-31T11:05:18;93468.59;;;15.54;60.60
71057;BME280;58380;48.312;9.246;2023-08-31T11:07:45;93484.31;;;15.69;54.13
71057;BME280;58380;48.312;9.246;2023-08-31T11:10:20;93470.75;;;15.52;51.79
71057;BME280;58380;48.312;9.246;2023-08-31T11:12:53;93454.78;;;15.19;51.26
71057;BME280;58380;48.312;9.246;2023-08-31T11:15:22;93482.00;;;15.30;51.47
71057;BME280;58380;48.312;9.246;2023-08-31T11:17:51;93432.41;;;15.06;51.78
71057;BME280;58380;48.312;9.246;2023-08-31T11:20:20;93473.22;;;15.48;53.27
71057;BME280;58380;48.312;9.246;2023-08-31T11:22:48;93470.56;;;15.62;55.66
71057;BME280;58380;48.312;9.246;2023-08-31T11:25:16;93468.22;;;15.61;56.79
71057;BME280;58380;48.312;9.246;2023-08-31T11:27:52;93479.44;;;15.58;52.10
71057;BME280;58380;48.312;9.246;2023-08-31T11:30:22;93435.34;;;15.05;51.82
71057;BME280;58380;48.312;9.246;2023-08-31T11:32:53;93480.16;;;15.12;53.45
71057;BME280;58380;48.312;9.246;2023-08-31T11:35:20;93454.84;;;15.00;51.12
71057;BME280;58380;48.312;9.246;2023-08-31T11:37:56;93458.69;;;15.08;52.05
71057;BME280;58380;48.312;9.246;2023-08-31T11:40:22;93466.22;;;15.20;55.35
71057;BME280;58380;48.312;9.246;2023-08-31T11:42:48;93439.22;;;15.13;54.58
71057;BME280;58380;48.312;9.246;2023-08-31T11:45:17;93479.91;;;15.46;55.12
71057;BME280;58380;48.312;9.246;2023-08-31T11:55:16;93425.53;;;14.86;55.76
71057;BME280;58380;48.312;9.246;2023-08-31T11:57:50;93373.84;;;14.41;56.93
71057;BME280;58380;48.312;9.246;2023-08-31T12:00:34;93413.59;;;14.65;53.68
71057;BME280;58380;48.312;9.246;2023-08-31T12:03:42;93373.66;;;14.32;53.56
71057;BME280;58380;48.312;9.246;2023-08-31T12:06:10;93379.66;;;14.43;56.62
71057;BME280;58380;48.312;9.246;2023-08-31T12:08:54;93504.25;;;15.20;54.76
71057;BME280;58380;48.312;9.246;2023-08-31T12:11:38;93504.44;;;15.24;57.80
71057;BME280;58380;48.312;9.246;2023-08-31T12:14:33;93498.94;;;15.20;53.44
71057;BME280;58380;48.312;9.246;2023-08-31T12:17:06;93438.03;;;14.86;57.74
71057;BME280;58380;48.312;9.246;2023-08-31T12:23:35;93487.81;;;15.65;54.24
71057;BME280;58380;48.312;9.246;2023-08-31T12:26:44;93341.25;;;14.73;53.17
71057;BME280;58380;48.312;9.246;2023-08-31T12:29:28;93370.94;;;14.94;57.68
71057;BME280;58380;48.312;9.246;2023-08-31T12:31:53;93407.34;;;15.26;57.04
71057;BME280;58380;48.312;9.246;2023-08-31T12:34:23;93361.13;;;15.08;55.66
71057;BME280;58380;48.312;9.246;2023-08-31T12:36:51;93462.81;;;15.66;55.97
71057;BME280;58380;48.312;9.246;2023-08-31T12:39:17;93432.34;;;15.58;59.49
71057;BME280;58380;48.312;9.246;2023-08-31T12:41:43;93406.75;;;15.29;54.93
71057;BME280;58380;48.312;9.246;2023-08-31T12:44:09;93462.47;;;15.53;54.58
71057;BME280;58380;48.312;9.246;2023-08-31T12:46:34;93462.97;;;15.56;54.50
71057;BME280;58380;48.312;9.246;2023-08-31T12:49:01;93416.03;;;15.32;56.44
71057;BME280;58380;48.312;9.246;2023-08-31T12:51:52;93356.19;;;15.02;55.68
71057;BME280;58380;48.312;9.246;2023-08-31T12:54:20;93379.00;;;15.49;55.25
71057;BME280;58380;48.312;9.246;2023-08-31T12:56:58;93365.34;;;15.56;53.61
71057;BME280;58380;48.312;9.246;2023-08-31T12:59:26;93390.31;;;15.74;55.30
71057;BME280;58380;48.312;9.246;2023-08-31T13:01:54;93325.03;;;15.49;52.72
71057;BME280;58380;48.312;9.246;2023-08-31T13:04:29;93466.69;;;16.56;52.03
71057;BME280;58380;48.312;9.246;2023-08-31T13:06:54;93353.13;;;15.69;51.87
71057;BME280;58380;48.312;9.246;2023-08-31T13:09:20;93410.72;;;15.79;52.83
71057;BME280;58380;48.312;9.246;2023-08-31T13:11:45;93448.75;;;16.07;54.18
71057;BME280;58380;48.312;9.246;2023-08-31T13:14:11;93440.47;;;16.36;54.68
71057;BME280;58380;48.312;9.246;2023-08-31T13:16:41;93435.22;;;16.58;52.95
71057;BME280;58380;48.312;9.246;2023-08-31T13:19:07;93335.09;;;15.93;52.93
71057;BME280;58380;48.312;9.246;2023-08-31T13:21:32;93412.41;;;16.52;55.10
71057;BME280;58380;48.312;9.246;2023-08-31T13:23:57;93374.22;;;16.21;50.75
71057;BME280;58380;48.312;9.246;2023-08-31T13:26:25;93448.34;;;16.55;51.84
71057;BME280;58380;48.312;9.246;2023-08-31T13:28:50;93433.38;;;16.45;53.64
71057;BME280;58380;48.312;9.246;2023-08-31T13:31:16;93364.59;;;15.83;52.76
71057;BME280;58380;48.312;9.246;2023-08-31T13:33:41;93470.16;;;16.29;50.25
71057;BME280;58380;48.312;9.246;2023-08-31T13:36:07;93428.44;;;15.97;52.28
71057;BME280;58380;48.312;9.246;2023-08-31T13:38:34;93382.13;;;15.84;51.67
71057;BME280;58380;48.312;9.246;2023-08-31T13:41:00;93420.88;;;16.04;51.58
71057;BME280;58380;48.312;9.246;2023-08-31T13:43:25;93435.25;;;16.31;53.11
71057;BME280;58380;48.312;9.246;2023-08-31T13:45:54;93460.88;;;16.54;53.72
71057;BME280;58380;48.312;9.246;2023-08-31T13:48:27;93418.16;;;16.32;54.04
71057;BME280;58380;48.312;9.246;2023-08-31T13:50:55;93465.13;;;16.55;53.00
71057;BME280;58380;48.312;9.246;2023-08-31T13:53:24;93393.94;;;16.06;53.44
71057;BME280;58380;48.312;9.246;2023-08-31T14:35:38;93376.78;;;16.12;56.23
71057;BME280;58380;48.312;9.246;2023-08-31T14:45:53;93351.75;;;16.13;58.92
71057;BME280;58380;48.312;9.246;2023-08-31T17:18:27;93486.81;;;14.95;73.04
71057;BME280;58380;48.312;9.246;2023-08-31T17:25:42;93472.41;;;14.77;79.81
71057;BME280;58380;48.312;9.246;2023-08-31T21:08:24;93572.91;;;12.74;95.38
